Time;durP1;ratioP1;P1;durP2;ratioP2;P2;SDS_P1;SDS_P2;PMS_P1;PMS_P2;Temp;Humidity;BMP_temperature;BMP_pressure;BME280_temperature;BME280_humidity;BME280_pressure;Samples;Min_cycle;Max_cycle;Signal;HPM_P1;HPM_P2
2022/08/21 00:00:27;;;;;;;10.52;2.80;;;15.40;99.90;;;14.51;100.00;97822.38;4939832;28;20419;-68
2022/08/21 00:03:06;;;;;;;5.18;2.17;;;15.30;99.90;;;14.55;100.00;97822.16;4940521;28;20538;-69
2022/08/21 00:05:39;;;;;;;7.43;2.25;;;15.30;99.90;;;14.49;100.00;97813.78;4943795;28;20091;-67
2022/08/21 00:08:07;;;;;;;5.30;2.25;;;15.20;99.90;;;14.46;100.00;97820.03;4937079;28;20444;-68
2022/08/21 00:10:34;;;;;;;4.40;2.13;;;15.20;99.90;;;14.51;100.00;97820.59;4940337;28;20343;-68
2022/08/21 00:13:05;;;;;;;8.02;3.05;;;15.10;99.90;;;14.19;100.00;97820.56;4956162;28;20055;-68
2022/08/21 00:15:35;;;;;;;8.32;2.75;;;15.10;99.90;;;14.18;100.00;97818.03;4939112;28;20050;-69
2022/08/21 00:18:03;;;;;;;7.63;2.58;;;15.10;99.90;;;14.39;100.00;97823.88;4940486;28;20043;-68
2022/08/21 00:20:32;;;;;;;5.18;2.45;;;15.00;99.90;;;14.38;100.00;97811.75;4952317;28;20142;-69
2022/08/21 00:23:00;;;;;;;7.05;2.55;;;15.00;99.90;;;14.37;100.00;97808.31;4938539;28;20146;-70
2022/08/21 00:25:27;;;;;;;4.57;2.00;;;15.00;99.90;;;14.44;100.00;97803.59;4942754;28;20507;-69
2022/08/21 00:27:55;;;;;;;5.55;2.20;;;15.00;99.90;;;14.42;100.00;97802.81;4942955;28;20570;-68
2022/08/21 00:30:25;;;;;;;4.65;2.17;;;14.90;99.90;;;14.46;100.00;97803.47;4941672;28;20194;-68
2022/08/21 00:32:55;;;;;;;5.68;2.50;;;15.00;99.90;;;14.13;100.00;97799.16;4943167;28;20145;-69
2022/08/21 00:35:31;;;;;;;5.40;2.40;;;14.90;99.90;;;14.17;100.00;97798.91;4936743;28;20600;-69
2022/08/21 00:37:59;;;;;;;5.65;2.85;;;;;;;14.13;100.00;97809.59;4939866;28;20048;-68
2022/08/21 00:40:35;;;;;;;6.85;2.65;;;15.00;99.90;;;13.97;100.00;97815.63;4940968;28;20138;-70
2022/08/21 00:43:09;;;;;;;5.47;2.55;;;14.80;99.90;;;14.12;100.00;97815.78;4939392;28;20078;-70
2022/08/21 00:45:36;;;;;;;5.13;2.50;;;14.80;99.90;;;14.16;100.00;97805.09;4941667;28;20134;-68
2022/08/21 00:48:04;;;;;;;7.20;2.78;;;14.70;99.90;;;14.13;100.00;97813.06;4941890;28;20070;-68
2022/08/21 00:50:40;;;;;;;7.80;2.42;;;14.70;99.90;;;14.26;100.00;97808.03;4941750;28;20134;-69
2022/08/21 00:53:09;;;;;;;8.88;2.45;;;14.80;99.90;;;14.16;100.00;97802.47;4944333;28;20148;-69
2022/08/21 00:55:37;;;;;;;6.75;2.53;;;14.80;99.90;;;14.18;100.00;97802.38;4939803;28;20066;-68
2022/08/21 00:58:08;;;;;;;7.18;2.50;;;14.70;99.90;;;13.96;100.00;97813.13;4962351;28;20055;-68
2022/08/21 01:00:39;;;;;;;5.95;2.28;;;;;;;13.57;100.00;97807.28;4939671;28;20073;-68
2022/08/21 01:03:10;;;;;;;6.20;2.53;;;;;;;13.36;100.00;97819.63;4940853;28;20090;-68
2022/08/21 01:05:37;;;;;;;8.02;3.00;;;14.60;99.90;;;13.31;100.00;97828.59;4942608;28;20133;-69
2022/08/21 01:08:06;;;;;;;6.60;2.50;;;14.50;99.90;;;13.41;100.00;97839.41;4941530;28;20062;-69
2022/08/21 01:10:34;;;;;;;5.53;2.40;;;14.40;99.90;;;13.30;100.00;97840.78;4943869;28;20155;-69
2022/08/21 01:13:07;;;;;;;5.75;2.30;;;14.50;99.90;;;13.59;100.00;97836.72;4945968;28;20047;-69
2022/08/21 01:15:41;;;;;;;4.78;2.45;;;14.40;99.90;;;13.58;100.00;97829.81;4963815;28;20051;-68
2022/08/21 01:18:11;;;;;;;6.35;2.38;;;14.30;99.90;;;13.45;100.00;97827.91;4946187;28;20381;-68
2022/08/21 01:20:43;;;;;;;4.65;2.25;;;14.30;99.90;;;13.41;100.00;97823.75;4948295;28;20051;-69
2022/08/21 01:23:12;;;;;;;8.32;3.63;;;14.20;99.90;;;13.26;100.00;97833.16;4959608;28;20043;-68
2022/08/21 01:25:39;;;;;;;7.18;2.17;;;;;;;13.26;100.00;97833.16;4939433;29;20583;-69
2022/08/21 01:28:13;;;;;;;4.68;2.28;;;;;;;13.31;100.00;97841.63;4956253;28;20148;-68
2022/08/21 01:30:44;;;;;;;6.80;2.63;;;;;;;13.30;100.00;97840.78;4943135;28;20171;-68
2022/08/21 01:33:11;;;;;;;4.47;1.80;;;;;;;13.09;100.00;97847.88;4942501;29;20051;-68
2022/08/21 01:35:38;;;;;;;5.45;2.47;;;;;;;13.23;100.00;97847.19;4943387;28;20069;-68
2022/08/21 01:38:06;;;;;;;7.25;3.08;;;;;;;13.07;100.00;97843.63;4939363;28;20142;-68
2022/08/21 01:40:33;;;;;;;6.40;2.00;;;;;;;13.24;100.00;97848.88;4958302;28;20149;-67
2022/08/21 01:43:02;;;;;;;5.93;2.58;;;14.10;99.90;;;13.21;100.00;97848.19;4942308;28;20453;-67
2022/08/21 01:45:29;;;;;;;7.07;2.50;;;14.00;99.90;;;13.23;100.00;97844.59;4953844;28;20716;-68
2022/08/21 01:47:57;;;;;;;5.78;2.30;;;;;;;13.13;100.00;97840.72;4956238;28;20498;-68
2022/08/21 01:50:24;;;;;;;6.13;2.70;;;;;;;13.19;100.00;97841.28;4957562;28;20051;-68
2022/08/21 01:52:52;;;;;;;5.03;2.60;;;;;;;13.17;100.00;97842.28;4941858;29;20147;-68
2022/08/21 01:55:20;;;;;;;6.95;2.92;;;14.00;99.90;;;12.85;100.00;97843.81;4939835;29;20066;-68
2022/08/21 01:57:48;;;;;;;5.15;2.47;;;13.70;99.90;;;12.79;100.00;97850.16;4954985;28;20158;-68
2022/08/21 02:00:19;;;;;;;6.25;2.67;;;13.90;99.90;;;12.77;100.00;97858.06;4942271;28;20051;-67
2022/08/21 02:02:46;;;;;;;7.07;2.67;;;13.80;99.90;;;12.70;100.00;97853.19;4942017;28;20055;-68
2022/08/21 02:05:14;;;;;;;7.55;2.72;;;13.70;99.90;;;12.66;100.00;97855.13;4940302;28;20122;-68
2022/08/21 02:07:46;;;;;;;6.78;2.60;;;13.70;99.90;;;12.64;100.00;97850.91;4939331;28;20050;-68
2022/08/21 02:10:20;;;;;;;9.25;2.40;;;13.60;99.90;;;12.64;100.00;97861.31;4955739;28;20047;-67
2022/08/21 02:12:47;;;;;;;5.90;2.08;;;13.60;99.90;;;12.64;100.00;97851.72;4957575;28;20063;-67
2022/08/21 02:15:15;;;;;;;6.03;2.53;;;13.60;99.90;;;12.50;100.00;97852.38;4941487;28;20055;-67
2022/08/21 02:17:46;;;;;;;8.38;3.03;;;;;;;12.56;100.00;97846.03;4938225;28;20147;-68
2022/08/21 02:20:22;;;;;;;5.20;2.38;;;13.50;99.90;;;12.56;100.00;97856.44;4956662;28;20149;-67
2022/08/21 02:22:50;;;;;;;5.95;3.05;;;13.70;99.90;;;12.51;100.00;97858.41;4943334;28;20052;-68
2022/08/21 02:25:20;;;;;;;5.70;2.80;;;13.50;99.90;;;12.63;100.00;97859.59;4941470;29;20051;-68
2022/08/21 02:27:48;;;;;;;8.80;2.80;;;;;;;12.44;100.00;97857.00;4957601;28;20047;-68
2022/08/21 02:30:27;;;;;;;7.13;2.75;;;13.60;99.90;;;12.29;100.00;97862.00;4939989;28;20055;-68
2022/08/21 02:32:55;;;;;;;5.63;2.45;;;13.60;99.90;;;12.11;100.00;97862.81;4942250;28;20063;-68
2022/08/21 02:35:22;;;;;;;7.88;3.13;;;13.40;99.90;;;12.11;100.00;97871.47;4940704;28;20051;-68
2022/08/21 02:38:03;;;;;;;5.70;2.50;;;13.30;99.90;;;12.24;100.00;97874.38;4936117;29;20039;-68
2022/08/21 02:40:37;;;;;;;8.27;2.45;;;13.40;99.90;;;12.23;100.00;97869.25;4938814;28;20138;-68
2022/08/21 02:43:10;;;;;;;7.10;3.20;;;13.30;99.90;;;12.28;100.00;97872.47;4953622;28;20089;-69
2022/08/21 02:45:39;;;;;;;6.95;2.88;;;13.30;99.90;;;12.23;100.00;97874.44;4940455;28;20051;-69
2022/08/21 02:48:12;;;;;;;7.43;2.63;;;13.20;99.90;;;12.23;100.00;97870.09;4941269;28;20059;-67
2022/08/21 02:50:56;;;;;;;10.63;2.75;;;13.30;99.90;;;12.34;100.00;97870.44;4956910;28;20089;-68
2022/08/21 02:53:23;;;;;;;7.28;2.72;;;13.20;99.90;;;12.51;100.00;97867.06;4939116;29;20142;-68
2022/08/21 02:55:52;;;;;;;5.10;2.40;;;13.20;99.90;;;12.68;100.00;97863.72;4955158;28;20137;-68
2022/08/21 02:58:27;;;;;;;5.43;2.20;;;13.10;99.90;;;12.64;100.00;97856.09;4941175;28;20171;-68
2022/08/21 03:00:54;;;;;;;5.18;2.72;;;13.20;99.90;;;12.64;100.00;97858.72;4956712;28;20134;-69
2022/08/21 03:03:21;;;;;;;5.32;2.20;;;13.20;99.90;;;12.66;100.00;97852.50;4940281;29;20051;-68
2022/08/21 03:05:49;;;;;;;6.20;2.70;;;13.30;99.90;;;12.58;100.00;97848.56;4941682;28;20134;-67
2022/08/21 03:08:18;;;;;;;5.28;2.63;;;13.30;99.90;;;12.53;100.00;97857.44;4940893;29;20465;-70
2022/08/21 03:10:50;;;;;;;6.60;2.15;;;13.20;99.90;;;12.49;100.00;97849.84;4943846;28;20069;-68
2022/08/21 03:13:19;;;;;;;;;;;13.30;99.90;;;12.63;100.00;97850.03;4938964;29;20040;-70
2022/08/21 03:15:47;;;;;;;5.13;2.33;;;13.20;99.90;;;12.59;100.00;97843.31;4937509;29;19937;-68
2022/08/21 03:18:16;;;;;;;4.30;2.17;;;13.20;99.90;;;12.62;100.00;97840.53;4953016;28;20133;-68
2022/08/21 03:20:44;;;;;;;6.00;2.40;;;13.20;99.90;;;12.54;100.00;97843.50;4940481;28;20332;-69
2022/08/21 03:23:13;;;;;;;6.47;2.42;;;13.20;99.90;;;12.18;100.00;97833.03;4952305;28;20118;-68
2022/08/21 03:25:46;;;;;;;;;;;13.20;99.90;;;12.10;100.00;97845.50;4955227;28;20051;-68
2022/08/21 03:28:17;;;;;;;5.63;2.05;;;13.10;99.90;;;12.16;100.00;97837.44;4955796;28;20021;-68
2022/08/21 03:30:46;;;;;;;6.80;2.70;;;;;;;11.91;100.00;97842.88;4942640;28;20527;-68
2022/08/21 03:33:19;;;;;;;6.82;2.45;;;13.00;99.90;;;11.85;100.00;97854.34;4938315;29;20151;-68
2022/08/21 03:36:02;;;;;;;6.10;2.88;;;12.90;99.90;;;11.97;100.00;97855.59;4956161;28;20063;-68
2022/08/21 03:38:33;;;;;;;5.35;2.95;;;12.80;99.90;;;11.97;100.00;97860.81;4950072;28;20126;-68
2022/08/21 03:41:01;;;;;;;8.18;2.83;;;12.80;99.90;;;11.91;100.00;97858.50;4953959;28;20065;-68
2022/08/21 03:43:28;;;;;;;5.97;2.58;;;12.80;99.90;;;11.94;100.00;97866.16;4954818;28;20142;-69
2022/08/21 03:45:57;;;;;;;5.65;2.60;;;12.80;99.90;;;11.99;100.00;97869.41;4937665;29;20067;-68
2022/08/21 03:48:24;;;;;;;5.93;2.85;;;12.80;99.90;;;11.83;100.00;97876.97;4952940;28;20048;-68
2022/08/21 03:50:52;;;;;;;7.43;3.33;;;12.70;99.90;;;11.55;100.00;97879.91;4935436;29;20143;-70
2022/08/21 03:53:20;;;;;;;7.78;3.25;;;12.70;99.90;;;11.73;100.00;97881.75;4940313;28;20043;-68
2022/08/21 03:55:50;;;;;;;7.28;2.70;;;12.70;99.90;;;11.64;100.00;97882.13;4948898;28;20130;-67
2022/08/21 03:58:23;;;;;;;7.03;2.33;;;12.70;99.90;;;11.85;100.00;97872.56;4942247;28;20082;-67
2022/08/21 04:00:55;;;;;;;5.40;2.28;;;12.60;99.90;;;12.05;100.00;97874.34;4961899;28;20588;-67
2022/08/21 04:03:23;;;;;;;4.60;2.22;;;12.60;99.90;;;12.05;100.00;97869.13;4941041;28;20057;-68
2022/08/21 04:05:51;;;;;;;10.15;3.42;;;;;;;12.06;100.00;97859.56;4942058;29;20597;-69
2022/08/21 04:08:18;;;;;;;7.35;2.75;;;12.70;99.90;;;12.03;100.00;97855.34;4952565;28;20074;-68
2022/08/21 04:10:50;;;;;;;5.53;2.75;;;12.70;99.90;;;11.80;100.00;97858.91;4942492;29;20043;-68
2022/08/21 04:13:17;;;;;;;6.50;2.67;;;12.60;99.90;;;12.01;100.00;97857.16;4950715;28;20143;-68
2022/08/21 04:15:44;;;;;;;8.52;3.20;;;12.60;99.90;;;11.94;100.00;97850.53;4940622;28;20130;-69
2022/08/21 04:18:12;;;;;;;6.90;2.90;;;12.60;99.90;;;12.03;100.00;97855.34;4952728;28;20454;-68
2022/08/21 04:20:42;;;;;;;5.93;2.80;;;12.60;99.90;;;12.04;100.00;97857.06;4944291;28;20729;-68
2022/08/21 04:23:21;;;;;;;6.20;2.53;;;12.60;99.90;;;11.87;100.00;97859.50;4952475;28;20089;-67
2022/08/21 04:25:55;;;;;;;8.23;2.42;;;12.60;99.90;;;11.65;100.00;97860.41;4955618;28;20044;-68
2022/08/21 04:28:24;;;;;;;4.93;2.50;;;12.60;99.90;;;11.51;100.00;97867.94;4953446;28;20043;-67
2022/08/21 04:30:56;;;;;;;8.85;2.88;;;12.50;99.90;;;11.46;100.00;97891.53;4942196;28;20090;-68
2022/08/21 04:33:24;;;;;;;8.43;2.70;;;12.50;99.90;;;11.13;100.00;97893.75;4953628;28;20051;-69
2022/08/21 04:35:51;;;;;;;9.05;3.50;;;12.50;99.90;;;11.32;100.00;97904.25;4937463;29;20047;-68
2022/08/21 04:38:18;;;;;;;7.32;3.63;;;12.40;99.90;;;11.37;100.00;97917.06;4940158;28;20066;-68
2022/08/21 04:40:48;;;;;;;5.80;3.25;;;12.30;99.90;;;11.43;100.00;97932.41;4954354;28;20079;-68
2022/08/21 04:43:15;;;;;;;8.02;3.40;;;12.30;99.90;;;11.27;100.00;97929.59;4951818;28;20130;-67
2022/08/21 04:45:47;;;;;;;7.00;2.88;;;;;;;11.09;100.00;97931.16;4952735;28;20641;-68
2022/08/21 04:48:17;;;;;;;5.75;2.83;;;12.50;99.90;;;11.30;100.00;97926.84;4941059;28;20490;-69
2022/08/21 04:51:01;;;;;;;6.43;3.05;;;12.30;99.90;;;11.46;100.00;97922.72;4945070;28;20138;-68
2022/08/21 04:53:31;;;;;;;7.28;3.25;;;12.30;99.90;;;11.52;100.00;97932.03;4941008;28;20143;-68
2022/08/21 04:56:08;;;;;;;9.05;3.45;;;12.30;99.90;;;11.64;100.00;97931.53;4942558;29;20109;-67
2022/08/21 04:58:38;;;;;;;7.43;2.90;;;12.30;99.90;;;11.56;100.00;97933.59;4956946;28;20364;-69
2022/08/21 05:01:11;;;;;;;6.57;3.38;;;12.40;99.90;;;11.65;100.00;97938.41;4942290;28;20044;-69
2022/08/21 05:03:40;;;;;;;6.38;3.03;;;12.40;99.90;;;11.60;100.00;97944.72;4942445;29;20039;-68
2022/08/21 05:06:12;;;;;;;6.85;3.33;;;12.50;99.90;;;11.66;100.00;97941.88;4956155;28;20143;-67
2022/08/21 05:08:41;;;;;;;7.82;2.95;;;12.50;99.90;;;11.65;100.00;97948.81;4956969;28;20058;-68
2022/08/21 05:11:08;;;;;;;5.20;2.35;;;12.50;99.90;;;11.96;100.00;97939.78;4957015;28;20139;-68
2022/08/21 05:13:35;;;;;;;7.20;2.95;;;12.60;99.90;;;11.95;100.00;97921.63;4942255;29;20141;-69
2022/08/21 05:16:03;;;;;;;4.85;2.70;;;12.60;99.90;;;12.12;100.00;97919.16;4943189;28;20592;-68
2022/08/21 05:18:30;;;;;;;7.70;3.30;;;12.60;99.90;;;11.76;100.00;97909.38;4943221;28;20058;-68
2022/08/21 05:20:57;;;;;;;7.70;3.10;;;12.60;99.90;;;11.69;100.00;97918.34;4944136;28;20055;-68
2022/08/21 05:23:24;;;;;;;6.00;2.40;;;12.60;99.90;;;11.99;100.00;97911.00;4940253;28;20048;-70
2022/08/21 05:25:53;;;;;;;5.05;2.75;;;12.60;99.90;;;12.20;100.00;97917.06;4942652;29;20572;-68
2022/08/21 05:28:19;;;;;;;6.57;2.58;;;12.70;99.90;;;12.25;100.00;97915.09;4941711;29;20472;-67
2022/08/21 05:30:47;;;;;;;7.18;3.33;;;12.80;99.90;;;12.36;100.00;97912.00;4942724;28;20065;-69
2022/08/21 05:33:14;;;;;;;7.88;2.85;;;13.00;99.90;;;12.28;100.00;97908.91;4942607;28;20048;-68
2022/08/21 05:35:40;;;;;;;7.63;3.65;;;13.10;99.90;;;11.99;100.00;97910.19;4941029;29;20061;-69
2022/08/21 05:38:08;;;;;;;7.43;3.40;;;13.10;99.90;;;12.32;100.00;97916.53;4939069;28;20057;-68
2022/08/21 05:40:45;;;;;;;5.57;3.03;;;13.10;99.90;;;12.50;100.00;97911.41;4942905;28;20173;-67
2022/08/21 05:43:12;;;;;;;6.22;3.00;;;13.20;99.90;;;12.58;100.00;97916.28;4941528;28;20058;-67
2022/08/21 05:45:39;;;;;;;9.13;3.10;;;13.30;99.90;;;12.62;100.00;97915.22;4942228;28;20049;-67
2022/08/21 05:48:22;;;;;;;8.07;3.38;;;13.40;99.90;;;12.75;100.00;97911.16;4938937;29;20051;-68
2022/08/21 05:50:51;;;;;;;5.47;2.88;;;13.50;99.90;;;12.78;100.00;97911.00;4955743;28;20138;-68
2022/08/21 05:53:20;;;;;;;6.30;3.42;;;13.70;99.90;;;12.83;100.00;97906.41;4937623;28;20126;-68
2022/08/21 05:55:48;;;;;;;6.55;2.85;;;13.80;99.90;;;13.12;100.00;97906.81;4943878;28;20065;-68
2022/08/21 05:58:20;;;;;;;5.38;2.80;;;13.90;99.90;;;13.31;100.00;97896.38;4953458;28;20059;-68
2022/08/21 06:00:50;;;;;;;5.57;2.83;;;14.10;99.90;;;13.59;100.00;97898.47;4939385;28;20134;-68
2022/08/21 06:03:23;;;;;;;7.68;3.60;;;14.30;99.90;;;13.84;100.00;97887.63;4941356;29;20044;-67
2022/08/21 06:05:51;;;;;;;7.55;3.20;;;14.60;99.90;;;13.63;100.00;97884.34;4939916;29;20492;-67
2022/08/21 06:08:19;;;;;;;7.68;3.20;;;14.70;99.90;;;13.58;100.00;97891.56;4939208;28;20067;-68
2022/08/21 06:10:48;;;;;;;7.80;3.38;;;14.80;99.90;;;13.65;100.00;97889.50;4942999;28;20084;-68
2022/08/21 06:13:18;;;;;;;6.28;2.40;;;14.80;99.90;;;14.22;100.00;97882.22;4943436;28;20177;-68
2022/08/21 06:15:46;;;;;;;9.85;3.40;;;15.00;99.90;;;14.23;100.00;97870.84;4942774;28;20055;-68
2022/08/21 06:18:14;;;;;;;12.25;3.30;;;15.20;99.90;;;14.27;100.00;97866.31;4955106;28;20051;-68
2022/08/21 06:20:42;;;;;;;7.00;3.10;;;15.30;99.90;;;14.61;100.00;97857.53;4945223;28;20126;-67
2022/08/21 06:23:09;;;;;;;7.57;2.67;;;15.40;99.90;;;14.64;100.00;97859.97;4957596;28;20050;-67
2022/08/21 06:25:36;;;;;;;5.45;3.05;;;15.50;99.90;;;14.83;100.00;97862.44;4944911;29;20459;-67
2022/08/21 06:28:07;;;;;;;6.30;3.13;;;15.70;99.90;;;14.83;100.00;97854.59;4942750;29;20053;-67
2022/08/21 06:30:36;;;;;;;8.32;3.42;;;15.80;99.90;;;14.81;100.00;97854.69;4945556;28;20061;-69
2022/08/21 06:33:04;;;;;;;7.25;3.17;;;16.00;99.90;;;14.81;100.00;97865.13;4940401;29;20150;-67
2022/08/21 06:35:31;;;;;;;7.28;3.08;;;16.00;99.90;;;15.19;100.00;97856.06;4957118;28;20477;-67
2022/08/21 06:37:58;;;;;;;9.32;3.40;;;16.00;99.90;;;15.52;100.00;97837.59;4940660;28;20780;-67
2022/08/21 06:40:26;;;;;;;7.53;3.50;;;16.20;99.90;;;15.68;100.00;97834.91;4959899;28;20477;-68
2022/08/21 06:42:57;;;;;;;7.97;3.13;;;16.40;99.90;;;15.79;100.00;97814.22;4938027;29;20048;-67
2022/08/21 06:45:27;;;;;;;7.38;3.17;;;16.80;99.90;;;15.89;100.00;97815.34;4942788;28;20055;-68
2022/08/21 06:47:59;;;;;;;5.43;2.63;;;16.90;99.90;;;16.02;100.00;97812.00;4954106;28;20047;-68
2022/08/21 06:50:26;;;;;;;6.90;3.20;;;17.00;99.90;;;15.97;100.00;97809.66;4941398;28;20197;-68
2022/08/21 06:53:06;;;;;;;9.20;3.10;;;17.10;99.90;;;16.15;100.00;97807.69;4940073;28;20055;-68
2022/08/21 06:55:34;;;;;;;9.57;3.17;;;17.20;99.90;;;16.33;100.00;97805.72;4956032;28;20054;-67
2022/08/21 06:58:01;;;;;;;6.35;2.80;;;17.40;99.90;;;16.43;100.00;97796.31;4938717;28;20060;-68
2022/08/21 07:00:28;;;;;;;8.70;3.38;;;17.60;99.90;;;16.57;100.00;97790.22;4940628;29;20473;-67
2022/08/21 07:02:55;;;;;;;5.70;2.85;;;17.70;99.90;;;16.87;100.00;97782.19;4954182;28;20143;-68
2022/08/21 07:05:26;;;;;;;9.00;2.90;;;;;;;17.10;100.00;97777.22;4950357;28;20051;-67
2022/08/21 07:07:53;;;;;;;7.70;2.45;;;;;;;17.39;100.00;97774.47;4939589;28;20063;-68
2022/08/21 07:10:20;;;;;;;8.05;2.30;;;;;;;17.62;100.00;97778.97;4942832;28;20057;-67
2022/08/21 07:12:50;;;;;;;5.95;2.03;;;;;;;17.98;100.00;97764.31;4942076;28;20055;-67
2022/08/21 07:15:29;;;;;;;5.57;2.15;;;;;;;18.16;100.00;97756.94;4953805;28;20621;-67
2022/08/21 07:17:58;;;;;;;7.88;2.17;;;;;;;18.31;100.00;97747.09;4935919;29;20147;-68
2022/08/21 07:20:26;;;;;;;4.72;1.80;;;;;;;18.61;100.00;97733.56;4938224;28;20107;-68
2022/08/21 07:22:53;;;;;;;6.15;2.20;;;19.70;99.90;;;18.91;100.00;97719.16;4940227;28;20165;-67
2022/08/21 07:25:21;;;;;;;5.47;1.83;;;19.80;99.90;;;19.17;100.00;97723.28;4941164;28;20059;-67
2022/08/21 07:27:47;;;;;;;6.72;2.30;;;20.00;99.90;;;19.38;100.00;97714.72;4938694;28;20047;-69
2022/08/21 07:30:14;;;;;;;10.38;2.75;;;20.30;99.90;;;19.47;100.00;97707.91;4941733;29;20134;-68
2022/08/21 07:32:41;;;;;;;5.25;1.70;;;20.50;99.90;;;19.72;100.00;97701.63;4938064;29;20082;-69
2022/08/21 07:35:08;;;;;;;7.97;2.13;;;20.70;99.90;;;19.78;100.00;97701.16;4939676;28;20481;-69
2022/08/21 07:37:35;;;;;;;5.82;1.95;;;20.80;99.90;;;19.94;100.00;97687.63;4941874;28;20917;-67
2022/08/21 07:40:04;;;;;;;7.40;1.80;;;20.90;99.90;;;20.01;100.00;97694.06;4955264;28;20075;-67
2022/08/21 07:42:31;;;;;;;7.13;1.85;;;21.00;99.90;;;20.26;100.00;97683.25;4940079;28;20576;-68
2022/08/21 07:44:58;;;;;;;7.40;1.60;;;21.20;99.90;;;20.18;100.00;97679.53;4941820;28;20078;-69
2022/08/21 07:47:25;;;;;;;5.28;1.60;;;21.30;99.90;;;20.36;100.00;97682.50;4943862;28;20047;-68
2022/08/21 07:50:11;;;;;;;6.53;1.60;;;21.40;99.90;;;20.52;100.00;97679.44;4937973;28;20165;-69
2022/08/21 07:52:39;;;;;;;5.15;1.60;;;21.50;99.90;;;20.65;100.00;97672.25;4954881;28;20537;-69
2022/08/21 07:55:12;;;;;;;5.68;1.60;;;21.70;99.90;;;20.85;100.00;97662.69;4945275;28;20072;-68
2022/08/21 07:57:40;;;;;;;7.47;1.65;;;21.80;99.90;;;21.15;100.00;97666.38;4952031;28;20233;-69
2022/08/21 08:00:13;;;;;;;6.43;1.50;;;21.90;99.90;;;21.01;100.00;97671.00;4949958;28;20054;-68
2022/08/21 08:02:49;;;;;;;6.05;2.08;;;22.10;99.90;;;21.28;100.00;97657.28;4949712;28;20527;-67
2022/08/21 08:05:19;;;;;;;5.70;1.60;;;22.20;99.90;;;21.41;100.00;97669.44;4943367;28;20860;-67
2022/08/21 08:07:47;;;;;;;7.32;2.10;;;22.30;99.90;;;21.49;100.00;97657.28;4956394;28;20051;-68
2022/08/21 08:10:15;;;;;;;6.88;2.10;;;22.50;99.90;;;21.75;100.00;97658.63;4963278;28;20161;-69
2022/08/21 08:12:44;;;;;;;6.78;1.90;;;22.70;99.90;;;21.72;100.00;97651.81;4945952;28;20057;-70
2022/08/21 08:15:17;;;;;;;8.00;2.00;;;22.80;99.90;;;21.85;100.00;97647.13;4946252;28;20138;-68
2022/08/21 08:17:43;;;;;;;6.75;1.67;;;22.90;99.90;;;22.03;100.00;97642.03;4964072;28;20134;-68
2022/08/21 08:20:13;;;;;;;6.38;1.80;;;23.00;99.90;;;22.24;100.00;97636.66;4951829;28;20371;-68
2022/08/21 08:22:41;;;;;;;6.15;1.48;;;23.20;99.90;;;22.42;100.00;97633.34;4961519;28;20549;-68
2022/08/21 08:25:10;;;;;;;4.90;1.77;;;23.30;99.90;;;22.27;100.00;97628.47;4953080;28;20541;-68
2022/08/21 08:27:39;;;;;;;11.98;2.45;;;23.50;99.90;;;22.57;100.00;97621.38;4949192;28;20051;-69
2022/08/21 08:30:10;;;;;;;11.57;2.53;;;23.70;99.90;;;22.85;100.00;97616.19;4949676;28;20051;-67
2022/08/21 08:32:38;;;;;;;9.25;2.35;;;23.70;99.90;;;23.13;100.00;97625.09;4947881;28;20089;-70
2022/08/21 08:35:07;;;;;;;6.18;1.60;;;24.00;99.60;;;23.31;100.00;97620.72;4955321;28;20051;-69
2022/08/21 08:37:39;;;;;;;9.07;1.80;;;24.30;99.50;;;23.37;100.00;97622.78;4947387;28;20075;-69
2022/08/21 08:40:33;;;;;;;7.47;1.67;;;24.40;98.60;;;23.43;100.00;97621.38;4943940;28;20047;-68
2022/08/21 08:43:01;;;;;;;7.47;1.88;;;24.70;97.70;;;23.52;100.00;97617.88;4952369;28;20525;-70
2022/08/21 08:45:32;;;;;;;11.25;1.63;;;25.00;97.40;;;23.97;100.00;97608.31;4946455;28;20044;-68
2022/08/21 08:48:04;;;;;;;10.63;2.17;;;25.10;96.20;;;24.01;100.00;97613.16;4961615;28;20050;-70
2022/08/21 08:50:41;;;;;;;;;;;;;;;24.46;100.00;97606.16;4946775;28;20142;-71
2022/08/21 08:53:22;;;;;;;7.38;1.65;;;;;;;24.43;100.00;97611.78;4956935;28;19926;-69
2022/08/21 08:55:52;;;;;;;7.87;1.70;;;;;;;24.84;100.00;97607.66;4953718;28;20065;-70
2022/08/21 08:58:24;;;;;;;5.20;1.38;;;;;;;25.71;100.00;97602.38;4957492;28;20341;-70
2022/08/21 09:00:52;;;;;;;6.72;1.40;;;;;;;25.85;100.00;97607.09;4957427;28;20189;-71
2022/08/21 09:03:22;;;;;;;6.28;1.20;;;;;;;26.10;100.00;97607.19;4957468;28;20062;-70
2022/08/21 09:06:18;;;;;;;4.70;1.60;;;26.20;99.90;;;25.76;100.00;97615.19;4953106;28;20061;-72
2022/08/21 09:09:38;;;;;;;9.20;1.60;;;26.40;93.90;;;26.54;100.00;97609.56;4968396;28;20165;-69
2022/08/21 09:12:44;;;;;;;5.60;1.67;;;26.70;93.50;;;26.68;100.00;97616.09;4955483;28;20077;-69
2022/08/21 09:15:51;;;;;;;6.45;1.70;;;27.10;92.00;;;26.92;100.00;97610.78;4951760;28;20055;-69
2022/08/21 09:19:07;;;;;;;6.20;1.42;;;27.10;92.50;;;26.69;100.00;97620.44;4965976;28;20057;-71
2022/08/21 09:22:09;;;;;;;8.88;1.55;;;26.60;92.20;;;26.73;100.00;97611.13;4947639;28;20370;-69
2022/08/21 09:25:01;;;;;;;6.75;1.58;;;26.40;92.60;;;26.89;100.00;97612.94;4969684;28;20053;-69
2022/08/21 09:27:29;;;;;;;8.85;1.50;;;26.70;92.20;;;26.36;100.00;97616.88;4948944;28;20480;-71
2022/08/21 09:29:58;;;;;;;6.82;1.80;;;26.80;92.30;;;26.04;100.00;97623.78;4963678;28;20510;-69
2022/08/21 09:32:29;;;;;;;5.82;1.40;;;26.30;92.10;;;24.98;100.00;97614.25;4950784;28;20062;-70
2022/08/21 09:35:22;;;;;;;6.95;1.95;;;26.00;92.20;;;23.93;100.00;97607.78;4965054;28;20134;-70
2022/08/21 09:38:02;;;;;;;7.30;1.63;;;25.40;92.60;;;25.63;100.00;97610.31;4949721;28;20051;-69
2022/08/21 09:40:40;;;;;;;5.78;1.40;;;25.30;92.90;;;26.55;100.00;97599.78;4959451;28;20742;-69
2022/08/21 09:43:20;;;;;;;9.20;1.50;;;25.70;93.40;;;25.79;100.00;97597.06;4951774;28;20161;-69
2022/08/21 09:45:49;;;;;;;6.30;1.63;;;25.80;92.30;;;25.97;100.00;97593.53;4936709;28;20051;-69
2022/08/21 09:48:25;;;;;;;9.00;1.60;;;25.90;92.30;;;26.72;100.00;97593.47;4955198;28;20130;-68
2022/08/21 09:50:53;;;;;;;7.20;1.85;;;26.20;92.20;;;27.52;100.00;97590.84;4941916;28;20051;-68
2022/08/21 09:53:30;;;;;;;5.40;1.58;;;26.60;91.90;;;28.01;100.00;97592.50;4956689;28;20075;-69
2022/08/21 09:59:26;;;;;;;5.30;1.60;;;27.20;91.40;;;28.27;100.00;97591.34;4945502;28;20131;-69
2022/08/21 10:01:54;;;;;;;8.10;1.60;;;27.10;91.60;;;27.81;100.00;97583.25;4940838;28;20057;-69
2022/08/21 10:04:33;;;;;;;6.85;1.90;;;;;;;28.09;100.00;97587.09;4944228;28;20070;-68
2022/08/21 10:07:12;;;;;;;9.02;1.65;;;27.60;89.90;;;28.87;96.73;97574.50;4940560;28;20051;-68
2022/08/21 10:09:40;;;;;;;5.57;1.45;;;27.80;89.40;;;29.06;97.38;97566.97;4937869;28;20078;-67
2022/08/21 10:12:25;;;;;;;8.00;1.80;;;28.30;90.10;;;27.69;100.00;97578.28;4942579;28;20182;-68
2022/08/21 10:15:20;;;;;;;5.82;1.73;;;28.20;88.70;;;28.77;96.32;97566.78;4953172;28;20063;-69
2022/08/21 10:18:31;;;;;;;5.28;1.42;;;28.00;89.20;;;29.29;93.46;97564.28;4944892;28;20358;-69
2022/08/21 10:21:27;;;;;;;6.97;1.80;;;;;;;29.08;95.46;97560.50;4903617;29;20136;-68
2022/08/21 10:24:05;;;;;;;4.38;1.65;;;28.70;99.10;;;29.20;91.66;97563.53;4889281;29;20048;-68
2022/08/21 10:26:47;;;;;;;5.28;1.45;;;29.00;86.70;;;29.80;92.94;97559.00;4935097;28;20158;-68
2022/08/21 10:30:07;;;;;;;9.60;2.05;;;29.20;86.60;;;27.67;92.12;97558.16;4943200;28;20154;-69
2022/08/21 10:32:40;;;;;;;7.53;1.70;;;28.70;83.50;;;26.79;97.05;97564.34;4938137;28;21013;-68
2022/08/21 10:35:19;;;;;;;5.65;1.33;;;28.40;83.50;;;26.80;100.00;97558.88;4936725;29;20047;-69
2022/08/21 10:38:07;;;;;;;8.75;1.63;;;27.90;99.10;;;26.08;100.00;97561.28;4935860;28;20127;-68
2022/08/21 10:40:50;;;;;;;4.90;1.42;;;;;;;25.42;100.00;97560.22;4943791;28;20139;-68
2022/08/21 10:43:40;;;;;;;5.75;1.42;;;;;;;25.56;100.00;97558.78;4933327;29;20146;-67
2022/08/21 10:46:16;;;;;;;6.07;1.80;;;;;;;25.34;100.00;97558.38;4942222;28;20820;-68